Etusivu
METAR-TAF:

METAR-TAF

Lentoasemat :

El Palomar, Argentiina

Leveyspiiri: 34-36S, Pituuspiiri: 058-36W, korkeus merenpinnasta: 18 m

Tämänhetkinen sää

Tämä raportti tehtiin 14 tuntia ja 0 minuuttia sitten, kello 22.40 UTC
Tuuli 6 kn idästä
Lämpötila 21°C
Kosteus 94%
Ilmanpaine 1004 hPa
Näkyvyys 10 km tai enemmän
Pilvistä 4500 ft:n korkeudessa

METAR: SADP 172240Z 09006KT 9999 OVC045 21/20 Q1004 RETSRA

Aika: 09:40 (12:40 UTC)


TAF: puuttuu

Säähavainnot ja -ennusteet yli 4000 lentoasemalta (METAR- ja TAF-raportit).

Käytössä olevat sääasemat on merkitty karttaan keltaisilla ja punaisilla pisteillä.

Aseta hiiri pisteen päälle nähdäksesi sääaseman nimen.

Klikkaa sitten nähdäksesi säähavainnot ja -ennusteet.

Kartan vaihtaminen: klikkaa mustalla rastilla varustettuja vihreitä pisteitä, niin voit zoomata sisään; viivalla varustettua vihreää pistettä, niin voit zoomata ulos tai vihreitä nuolia, niin pääset viereisille kartoille.


METAR-TAF: